Terminal Aerodrome Forecast
Issued by NWS

Home | Current Version | Previous Version | Text Only | Print | Product List | Glossary On
Versions: 1 2 3 4 5 6 7 8 9 10 11 12 13 14
599
FTUS42 TJSJ 161751
TAFISX
TAF
TISX 161751Z 1618/1718 07014G25KT P6SM VCSH FEW022 SCT040
     FM162230 06010KT P6SM FEW030 SCT050
     FM170400 04008KT P6SM VCSH SCT025
     FM171400 07014KT P6SM FEW030=

USA.gov is the U.S. government's official web portal to all federal, state and local government web resources and services.